Time;durP1;ratioP1;P1;durP2;ratioP2;P2;SDS_P1;SDS_P2;PMS_P1;PMS_P2;Temp;Humidity;BMP_temperature;BMP_pressure;BME280_temperature;BME280_humidity;BME280_pressure;Samples;Min_cycle;Max_cycle;Signal;HPM_P1;HPM_P2
2022/05/27 00:01:20;;;;;;;16.57;14.80;;;;;;;13.26;100.00;100789.33;1780143;79;21025;-88
2022/05/27 00:03:50;;;;;;;17.40;15.60;;;;;;;13.22;100.00;100789.74;1809915;79;21001;-87
2022/05/27 00:06:19;;;;;;;16.10;14.38;;;;;;;13.19;100.00;100788.68;1813173;77;20986;-87
2022/05/27 00:08:47;;;;;;;17.92;16.02;;;;;;;13.14;100.00;100786.45;1813438;78;21866;-88
2022/05/27 00:11:15;;;;;;;17.27;14.47;;;;;;;13.13;100.00;100790.02;1812833;79;21079;-88
2022/05/27 00:13:42;;;;;;;17.02;15.32;;;;;;;13.11;100.00;100793.23;1812957;78;21009;-90
2022/05/27 00:16:17;;;;;;;17.50;14.73;;;;;;;13.10;100.00;100796.80;1812684;79;21099;-90
2022/05/27 00:18:44;;;;;;;16.10;14.47;;;;;;;13.08;100.00;100801.34;1818568;77;21092;-89
2022/05/27 00:21:14;;;;;;;21.70;14.33;;;;;;;13.06;100.00;100799.33;1821541;78;21444;-90
2022/05/27 00:23:43;;;;;;;16.73;15.03;;;;;;;13.03;100.00;100792.57;1821524;77;21487;-87
2022/05/27 00:26:12;;;;;;;16.80;15.05;;;;;;;13.01;100.00;100785.82;1821549;77;21013;-90
2022/05/27 00:28:42;;;;;;;18.90;15.00;;;;;;;12.99;100.00;100796.37;1821174;78;20985;-89
2022/05/27 00:31:09;;;;;;;16.87;15.15;;;;;;;12.98;100.00;100793.91;1821437;77;21024;-89
2022/05/27 00:33:41;;;;;;;17.12;15.32;;;;;;;12.99;100.00;100790.34;1789378;78;21935;-90
2022/05/27 00:36:12;;;;;;;16.15;14.55;;;;;;;12.98;100.00;100791.28;1790102;78;21024;-91
2022/05/27 00:38:41;;;;;;;;;;;;;;;12.97;100.00;100790.93;1824171;77;20977;-90
2022/05/27 00:41:10;;;;;;;19.00;14.78;;;;;;;12.97;100.00;100798.77;1821621;77;20468;-89
2022/05/27 00:43:42;;;;;;;17.37;15.45;;;;;;;12.93;100.00;100790.36;1821441;77;21515;-87
2022/05/27 00:46:19;;;;;;;19.07;15.98;;;;;;;12.91;100.00;100785.73;1821851;77;21114;-87
2022/05/27 00:48:53;;;;;;;18.23;15.75;;;;;;;12.90;100.00;100787.52;1818435;77;20973;-89
2022/05/27 00:51:27;;;;;;;17.12;15.35;;;;;;;12.90;100.00;100777.53;1821733;77;21048;-91
2022/05/27 00:54:12;;;;;;;18.23;16.35;;;;;;;12.90;100.00;100787.52;1817579;77;21032;-89
2022/05/27 00:56:46;;;;;;;18.05;16.20;;;;;;;12.87;100.00;100781.72;1817875;77;21802;-89
2022/05/27 00:59:22;;;;;;;19.42;16.75;;;;;;;12.83;100.00;100777.69;1821403;78;21157;-91
2022/05/27 01:01:50;;;;;;;19.42;17.40;;;;;;;12.80;100.00;100787.92;1817214;78;20981;-90
2022/05/27 01:04:18;;;;;;;18.50;16.55;;;;;;;12.79;100.00;100777.11;1816351;77;21008;-88
2022/05/27 01:06:45;;;;;;;20.72;16.75;;;;;;;12.76;100.00;100787.84;1821854;77;21075;-89
2022/05/27 01:09:15;;;;;;;17.62;15.83;;;;;;;12.70;100.00;100789.16;1810197;78;21002;-89
2022/05/27 01:11:53;;;;;;;18.17;16.15;;;;;;;12.66;100.00;100784.30;1783086;80;21022;-87
2022/05/27 01:14:46;;;;;;;18.82;16.73;;;;;;;12.65;100.00;100783.95;1780011;80;21002;-89
2022/05/27 01:17:39;;;;;;;20.57;17.37;;;;;;;12.65;100.00;100782.19;1776332;80;21140;-89
2022/05/27 01:20:24;;;;;;;19.52;17.40;;;;;;;12.65;100.00;100777.42;1783151;80;21034;-84
2022/05/27 01:23:12;;;;;;;19.12;17.20;;;;;;;12.62;100.00;100778.02;1789606;78;21570;-90
2022/05/27 01:26:30;;;;;;;19.00;17.00;;;;;;;12.63;100.00;100779.67;1783131;80;21095;-91
2022/05/27 01:29:35;;;;;;;21.60;18.15;;;;;;;12.63;100.00;100777.55;1751064;80;21058;-91
2022/05/27 01:32:16;;;;;;;19.32;17.32;;;;;;;12.61;100.00;100776.37;1760734;80;21515;-87
2022/05/27 01:35:14;;;;;;;19.67;17.73;;;;;;;12.60;100.00;100777.33;1778923;80;21041;-88
2022/05/27 01:38:15;;;;;;;21.25;17.50;;;;;;;12.61;100.00;100783.37;1720325;80;21100;-92
2022/05/27 01:41:14;;;;;;;21.48;17.98;;;;;;;12.61;100.00;100782.91;1670637;84;20999;-89
2022/05/27 01:43:49;;;;;;;18.85;16.85;;;;;;;12.61;100.00;100779.45;1745447;80;21038;-89
2022/05/27 01:46:28;;;;;;;18.70;16.70;;;;;;;12.61;100.00;100782.91;1743703;82;21002;-86
2022/05/27 01:49:10;;;;;;;19.27;16.90;;;;;;;12.61;100.00;100789.44;1744810;82;21003;-88
2022/05/27 01:51:46;;;;;;;19.35;17.45;;;;;;;12.61;100.00;100782.91;1782329;80;21117;-85
2022/05/27 01:54:50;;;;;;;20.20;18.02;;;;;;;12.63;100.00;100784.89;1782860;80;21126;-87
2022/05/27 01:57:36;;;;;;;20.37;17.17;;;;;;;12.64;100.00;100784.44;1780656;80;21069;-89
2022/05/27 02:00:21;;;;;;;19.82;17.57;;;;;;;12.64;100.00;100788.36;1739338;80;21463;-87
2022/05/27 02:02:59;;;;;;;19.85;17.73;;;;;;;12.63;100.00;100788.81;1778740;80;21034;-89
2022/05/27 02:05:56;;;;;;;22.17;17.90;;;;;;;12.63;100.00;100784.89;1748467;80;21042;-89
2022/05/27 02:08:28;;;;;;;20.45;18.35;;;;;;;12.61;100.00;100785.52;1747856;80;21139;-86
2022/05/27 02:11:05;;;;;;;22.62;18.05;;;;;;;12.61;100.00;100781.60;1745765;82;21050;-89
2022/05/27 02:13:58;;;;;;;19.52;16.70;;;;;;;12.61;100.00;100784.22;1724322;82;33875;-89
2022/05/27 02:16:31;;;;;;;19.73;17.45;;;;;;;12.59;100.00;100783.96;1746185;80;20968;-88
2022/05/27 02:19:09;;;;;;;19.40;17.30;;;;;;;12.58;100.00;100784.91;1770955;80;20995;-84
2022/05/27 02:21:48;;;;;;;20.68;18.57;;;;;;;12.54;100.00;100779.59;1767658;81;21236;-84
2022/05/27 02:24:44;;;;;;;20.32;16.05;;;;;;;12.48;100.00;100780.92;1769526;80;21216;-88
2022/05/27 02:27:25;;;;;;;20.62;17.12;;;;;;;12.39;100.00;100786.88;1769781;80;21058;-85
2022/05/27 02:29:59;;;;;;;20.00;17.37;;;;;;;12.35;100.00;100793.31;1757926;80;21054;-87
2022/05/27 02:32:31;;;;;;;19.67;17.50;;;;;;;12.35;100.00;100791.52;1766241;80;22243;-88
2022/05/27 02:35:09;;;;;;;19.37;17.42;;;;;;;12.34;100.00;100788.55;1723726;81;21142;-87
2022/05/27 02:37:53;;;;;;;17.55;15.75;;;;;;;12.34;100.00;100796.87;1723017;82;21066;-88
2022/05/27 02:40:25;;;;;;;18.95;16.95;;;;;;;12.36;100.00;100794.48;1737749;81;21985;-85
2022/05/27 02:43:40;;;;;;;21.52;17.98;;;;;;;12.35;100.00;100784.98;1738083;81;21039;-86
2022/05/27 02:46:31;;;;;;;20.43;17.02;;;;;;;12.39;100.00;100782.95;1736179;82;21580;-85
2022/05/27 02:49:16;;;;;;;21.97;17.35;;;;;;;12.42;100.00;100791.86;1736711;81;21777;-86
2022/05/27 02:51:49;;;;;;;20.77;17.05;;;;;;;12.46;100.00;100792.80;1737526;82;21691;-86
2022/05/27 02:54:34;;;;;;;22.40;18.02;;;;;;;12.52;100.00;100798.02;1734087;82;20999;-87
2022/05/27 02:57:35;;;;;;;18.45;16.65;;;;;;;12.57;100.00;100796.34;1733053;82;21078;-87
2022/05/27 03:00:12;;;;;;;21.95;17.50;;;;;;;12.63;100.00;100793.23;1737629;82;21055;-85
2022/05/27 03:02:39;;;;;;;20.55;18.10;;;;;;;12.71;100.00;100794.73;1736011;82;21240;-88
2022/05/27 03:05:08;;;;;;;19.92;17.82;;;;;;;12.80;100.00;100802.78;1737746;81;21504;-88
2022/05/27 03:07:51;;;;;;;19.30;17.30;;;;;;;12.85;100.00;100792.31;1737990;81;21528;-87
2022/05/27 03:10:42;;;;;;;19.65;17.55;;;;;;;12.90;100.00;100790.59;1737172;82;21018;-87
2022/05/27 03:13:58;;;;;;;19.65;16.70;;;;;;;12.97;100.00;100789.63;1685182;82;21023;-84
2022/05/27 03:16:59;;;;;;;20.45;17.52;;;;;;;13.03;100.00;100795.64;1733842;81;21917;-85
2022/05/27 03:19:57;;;;;;;22.42;17.32;;;;;;;13.10;100.00;100791.11;1746239;80;21082;-85
2022/05/27 03:22:48;;;;;;;19.62;17.57;;;;;;;13.17;100.00;100790.13;1756932;80;21018;-87
2022/05/27 03:25:27;;;;;;;20.60;18.10;;;;;;;13.25;100.00;100800.77;1757073;80;21018;-86
2022/05/27 03:28:40;;;;;;;21.57;18.73;;;;;;;13.32;100.00;100794.53;1754581;80;21203;-86
2022/05/27 03:31:47;;;;;;;22.87;20.27;;;;;;;13.40;100.00;100796.05;1756805;80;22059;-86
2022/05/27 03:34:26;;;;;;;23.83;20.23;;;;;;;13.47;100.00;100792.45;1756487;80;21619;-86
2022/05/27 03:37:11;;;;;;;25.55;20.37;;;;;;;13.56;100.00;100795.59;1755942;80;21077;-86
2022/05/27 03:39:59;;;;;;;24.15;19.60;;;;;;;13.65;100.00;100793.16;1755136;80;21014;-85
2022/05/27 03:42:29;;;;;;;22.60;19.00;;;;;;;13.74;100.00;100797.58;1753796;80;21010;-86
2022/05/27 03:45:05;;;;;;;22.30;19.90;;;;;;;13.84;100.00;100794.53;1757001;80;21144;-84
2022/05/27 03:47:34;;;;;;;20.15;17.65;;;;;;;13.93;100.00;100792.92;1755257;80;21089;-83
2022/05/27 03:50:03;;;;;;;20.45;18.07;;;;;;;14.02;100.00;100792.59;1756676;80;21085;-85
2022/05/27 03:52:39;;;;;;;23.92;18.02;;;;;;;14.10;100.00;100797.17;1757211;80;20999;-85
2022/05/27 03:55:11;;;;;;;22.05;18.35;;;;;;;14.18;100.00;100795.53;1754977;80;21034;-86
2022/05/27 03:57:38;;;;;;;21.23;18.95;;;;;;;14.30;100.00;100782.33;1738328;80;21262;-86
2022/05/27 04:00:08;;;;;;;20.55;18.35;;;;;;;14.39;100.00;100784.60;1756869;80;21069;-84
2022/05/27 04:02:43;;;;;;;19.15;17.05;;;;;;;14.48;100.00;100785.09;1756650;80;21507;-86
2022/05/27 04:05:16;;;;;;;19.30;16.48;;;;;;;14.60;100.00;100784.48;1756828;80;21046;-86
2022/05/27 04:07:45;;;;;;;21.02;15.43;;;;;;;14.69;100.00;100779.77;1756621;80;22044;-85
2022/05/27 04:10:12;;;;;;;16.85;14.98;;;;;;;14.79;100.00;100774.51;1757184;80;21188;-85
2022/05/27 04:12:39;;;;;;;16.00;13.83;;;;;;;14.90;100.00;100771.72;1756541;80;21041;-85
2022/05/27 04:15:10;;;;;;;15.98;14.30;;;;;;;15.02;100.00;100780.76;1756787;80;21018;-85
2022/05/27 04:17:41;;;;;;;15.43;13.78;;;;;;;15.12;100.00;100782.39;1756584;80;21064;-86
2022/05/27 04:20:16;;;;;;;16.90;15.10;;;;;;;15.24;100.00;100774.38;1744147;80;21104;-86
2022/05/27 04:22:47;;;;;;;16.52;12.63;;;;;;;15.34;100.00;100775.19;1737857;81;21141;-84
2022/05/27 04:25:15;;;;;;;17.15;14.68;;;;;;;15.43;100.00;100768.23;1737755;81;21034;-88
2022/05/27 04:27:46;;;;;;;15.63;14.00;;;;;;;15.51;100.00;100772.28;1738072;81;21082;-86
2022/05/27 04:30:18;;;;;;;15.40;13.45;;;;;;;15.59;100.00;100772.86;1737731;81;21516;-89
2022/05/27 04:32:46;;;;;;;18.80;14.38;;;;;;;15.67;100.00;100775.59;1738227;81;21055;-88
2022/05/27 04:35:21;;;;;;;19.98;14.47;;;;;;;15.74;100.00;100770.59;1737783;81;21196;-88
2022/05/27 04:37:51;;;;;;;16.35;13.05;;;;;;;15.81;100.00;100769.54;1737885;81;21074;-87
2022/05/27 04:40:25;;;;;;;17.50;14.40;;;;;;;15.88;100.00;100766.20;1725432;81;20995;-86
2022/05/27 04:43:07;;;;;;;18.15;14.05;;;;;;;15.96;100.00;100763.32;1737469;81;21050;-89
2022/05/27 04:45:35;;;;;;;16.95;14.30;;;;;;;16.00;100.00;100758.13;1737937;81;21038;-88
2022/05/27 04:48:07;;;;;;;18.25;14.15;;;;;;;16.06;100.00;100758.34;1737749;81;21063;-88
2022/05/27 04:50:50;;;;;;;17.37;13.10;;;;;;;16.14;100.00;100752.87;1737532;81;21035;-88
2022/05/27 04:53:22;;;;;;;16.02;13.60;;;;;;;16.23;100.00;100758.52;1737130;81;21701;-88
2022/05/27 04:55:52;;;;;;;15.05;12.18;;;;;;;16.32;100.00;100751.56;1737886;81;21027;-87
2022/05/27 04:58:23;;;;;;;15.40;11.88;;;;;;;16.42;100.00;100754.10;1736973;81;21078;-88
2022/05/27 05:00:59;;;;;;;15.80;12.73;;;;;;;16.54;100.00;100753.73;1725574;81;21187;-88
2022/05/27 05:03:30;;;;;;;16.02;13.38;;;;;;;16.65;100.00;100753.98;1738002;81;21070;-89
2022/05/27 05:06:03;;;;;;;15.00;12.53;;;;;;;16.80;100.00;100762.16;1737783;81;21051;-88
2022/05/27 05:08:40;;;;;;;15.72;13.58;;;;;;;16.90;100.00;100760.74;1737915;81;21038;-90
2022/05/27 05:11:07;;;;;;;16.37;12.58;;;;;;;16.98;100.00;100770.04;1737871;81;21047;-89
2022/05/27 05:13:35;;;;;;;14.65;12.93;;;;;;;17.07;100.00;100769.59;1738334;81;21819;-88
2022/05/27 05:16:04;;;;;;;15.13;12.82;;;;;;;17.14;100.00;100764.55;1722012;82;21034;-90
2022/05/27 05:18:32;;;;;;;14.30;11.30;;;;;;;17.24;100.00;100760.48;1735273;81;21074;-87
2022/05/27 05:21:00;;;;;;;12.68;10.75;;;;;;;17.32;100.00;100754.80;1744973;82;21642;-90
2022/05/27 05:23:28;;;;;;;16.93;10.93;;;;;;;17.41;100.00;100758.80;1725028;81;21048;-87
2022/05/27 05:25:56;;;;;;;10.65;9.55;;;;;;;17.48;100.00;100754.55;1782637;80;21370;-90
2022/05/27 05:28:23;;;;;;;10.85;9.53;;;;;;;17.57;100.00;100756.72;1782390;80;22393;-91
2022/05/27 05:30:53;;;;;;;13.68;9.90;;;;;;;17.64;100.00;100755.09;1780102;80;21003;-90
2022/05/27 05:33:25;;;;;;;14.23;9.63;;;;;;;17.71;100.00;100757.93;1745221;81;21011;-89
2022/05/27 05:35:54;;;;;;;10.05;9.03;;;;;;;17.77;100.00;100762.08;1742761;81;21559;-90
2022/05/27 05:38:22;;;;;;;13.25;10.05;;;;;;;17.80;100.00;100755.66;1742579;81;21585;-91
2022/05/27 05:40:53;;;;;;;10.28;8.23;;;;;;;17.81;100.00;100756.81;1745553;80;21512;-89
2022/05/27 05:43:27;;;;;;;12.98;9.63;;;;;;;17.87;100.00;100749.25;1742497;81;21086;-89
2022/05/27 05:45:55;;;;;;;9.95;8.55;;;;;;;17.91;100.00;100741.38;1742513;81;21069;-90
2022/05/27 05:48:25;;;;;;;10.40;9.33;;;;;;;17.93;100.00;100744.17;1742517;81;21002;-90
2022/05/27 05:50:52;;;;;;;11.22;9.00;;;;;;;18.02;100.00;100752.97;1742568;81;21082;-89
2022/05/27 05:53:21;;;;;;;10.15;8.53;;;;;;;18.13;100.00;100749.20;1714880;81;21030;-88
2022/05/27 05:55:48;;;;;;;10.82;8.90;;;;;;;18.24;100.00;100743.60;1756084;80;21053;-89
2022/05/27 05:58:16;;;;;;;8.93;7.72;;;;;;;18.33;100.00;100741.82;1754836;80;21018;-89
2022/05/27 06:00:46;;;;;;;7.62;6.70;;;;;;;18.36;100.00;100743.30;1754923;80;21566;-89
2022/05/27 06:03:17;;;;;;;7.60;6.78;;;;;;;18.38;100.00;100742.65;1755216;81;21064;-90
2022/05/27 06:05:44;;;;;;;9.43;8.23;;;;;;;18.47;100.00;100743.47;1755119;81;21062;-88
2022/05/27 06:08:14;;;;;;;10.45;8.40;;;;;;;18.56;100.00;100741.16;1745465;81;21069;-87
2022/05/27 06:10:43;;;;;;;10.08;7.70;;;;;;;18.67;100.00;100736.05;1723801;81;21089;-90
2022/05/27 06:13:20;;;;;;;8.80;6.70;;;;;;;18.77;100.00;100734.08;1729347;81;21167;-91
2022/05/27 06:15:49;;;;;;;6.00;5.50;;;;;;;18.86;100.00;100737.03;1724653;81;21745;-91
2022/05/27 06:18:16;;;;;;;9.28;6.15;;;;;;;18.98;100.00;100738.02;1728285;80;21612;-91
2022/05/27 06:20:44;;;;;;;7.35;6.15;;;;;;;19.08;100.00;100736.03;1725205;81;21098;-89
2022/05/27 06:23:13;;;;;;;6.55;5.90;;;;;;;19.15;100.00;100725.63;1719237;82;21715;-90
2022/05/27 06:25:41;;;;;;;6.15;5.55;;;;;;;19.23;100.00;100733.50;1729551;82;21041;-90
2022/05/27 06:36:27;;;;;;;4.20;3.80;;;;;;;19.58;100.00;100753.85;1695188;84;21041;-89
2022/05/27 06:39:01;;;;;;;4.25;3.90;;;;;;;19.71;100.00;100759.91;1725202;82;21500;-88
2022/05/27 06:41:29;;;;;;;3.52;3.30;;;;;;;19.80;100.00;100748.80;1731460;82;21958;-87
2022/05/27 06:43:56;;;;;;;4.28;3.62;;;;;;;19.80;100.00;100754.92;1731354;82;21041;-88
2022/05/27 06:46:23;;;;;;;4.30;3.42;;;;;;;19.78;100.00;100760.86;1731779;82;21092;-89
2022/05/27 06:48:53;;;;;;;3.83;3.15;;;;;;;19.79;100.00;100755.09;1728938;82;21086;-90
2022/05/27 06:51:21;;;;;;;6.42;3.58;;;;;;;19.79;100.00;100760.38;1717238;83;21078;-89
2022/05/27 06:53:48;;;;;;;3.27;2.98;;;;;;;19.74;100.00;100749.49;1717103;83;21864;-88
2022/05/27 06:56:16;;;;;;;3.70;3.40;;;;;;;19.74;100.00;100762.70;1722102;82;21013;-89
2022/05/27 06:58:46;;;;;;;3.85;3.37;;;;;;;19.79;100.00;100760.38;1729302;81;21054;-89
2022/05/27 07:01:14;;;;;;;3.23;3.03;;;;;;;19.91;100.00;100762.98;1730871;82;20998;-87
2022/05/27 07:03:42;;;;;;;3.40;3.10;;;;;;;20.06;100.00;100755.63;1731142;82;21310;-88
2022/05/27 07:06:11;;;;;;;4.15;3.42;;;;;;;20.17;100.00;100754.73;1731696;82;21187;-86
2022/05/27 07:08:41;;;;;;;10.15;3.35;;;;;;;20.23;100.00;100751.89;1731652;82;21100;-88
2022/05/27 07:11:09;;;;;;;3.53;3.23;;;;;;;20.32;100.00;100752.64;1731216;82;21488;-87
2022/05/27 07:13:37;;;;;;;3.27;3.02;;;;;;;20.36;100.00;100757.91;1744246;81;21721;-88
2022/05/27 07:16:06;;;;;;;4.47;3.45;;;;;;;20.41;100.00;100756.88;1779054;80;21531;-87
2022/05/27 07:18:38;;;;;;;3.83;3.30;;;;;;;20.44;100.00;100752.56;1778570;80;20997;-90
2022/05/27 07:21:07;;;;;;;4.60;3.08;;;;;;;20.45;100.00;100754.22;1809070;78;21507;-88
2022/05/27 07:23:35;;;;;;;3.80;3.50;;;;;;;20.43;100.00;100757.53;1818208;78;21442;-88
2022/05/27 07:26:03;;;;;;;3.60;3.30;;;;;;;20.52;100.00;100762.24;1814632;78;21100;-88
2022/05/27 07:28:31;;;;;;;3.33;3.02;;;;;;;20.58;100.00;100758.91;1745916;80;21124;-88
2022/05/27 07:31:01;;;;;;;4.42;3.67;;;;;;;20.62;100.00;100764.16;1780819;78;21152;-88
2022/05/27 07:33:30;;;;;;;4.12;3.20;;;;;;;20.71;100.00;100772.02;1745952;80;21052;-88
2022/05/27 07:35:57;;;;;;;3.52;2.75;;;;;;;20.77;100.00;100768.20;1714625;80;21550;-88
2022/05/27 07:38:24;;;;;;;3.10;2.80;;;;;;;20.86;100.00;100768.13;1746025;80;20974;-88
2022/05/27 07:40:53;;;;;;;3.62;3.10;;;;;;;20.92;100.00;100772.70;1780417;78;20995;-88
2022/05/27 07:43:20;;;;;;;3.25;2.40;;;;;;;20.94;100.00;100770.70;1745942;80;21192;-87
2022/05/27 07:45:49;;;;;;;2.87;2.67;;;;;;;20.91;100.00;100765.24;1780584;80;20987;-88
2022/05/27 07:48:16;;;;;;;3.85;2.25;;;;;;;20.96;100.00;100770.00;1745758;80;21096;-88
2022/05/27 07:50:45;;;;;;;2.80;2.60;;;;;;;21.02;100.00;100778.56;1780601;78;21073;-89
2022/05/27 07:53:12;;;;;;;5.62;2.70;;;;;;;21.08;100.00;100768.56;1736739;80;21053;-88
2022/05/27 07:55:40;;;;;;;3.55;2.80;;;;;;;21.06;100.00;100770.56;1716177;82;21863;-88
2022/05/27 07:58:07;;;;;;;2.85;2.65;;;;;;;21.08;100.00;100770.38;1709756;82;21049;-88
2022/05/27 08:00:37;;;;;;;2.95;2.75;;;;;;;21.15;100.00;100762.54;1749918;82;21081;-90
2022/05/27 08:03:06;;;;;;;3.35;2.62;;;;;;;21.24;100.00;100762.78;1749743;80;21017;-90
2022/05/27 08:05:35;;;;;;;3.02;2.45;;;;;;;21.30;100.00;100770.50;1760836;80;21013;-92
2022/05/27 08:08:04;;;;;;;2.83;2.20;;;;;;;21.34;100.00;100768.63;1779284;80;21235;-91
2022/05/27 08:10:35;;;;;;;2.47;2.20;;;;;;;21.42;100.00;100761.92;1743208;80;21022;-92
2022/05/27 08:13:05;;;;;;;4.53;2.65;;;;;;;21.43;100.00;100759.56;1780795;79;21523;-90
2022/05/27 08:15:32;;;;;;;3.25;2.42;;;;;;;21.43;100.00;100755.59;1745906;80;21578;-91
2022/05/27 08:18:01;;;;;;;3.83;2.47;;;;;;;21.48;100.00;100746.28;1715137;80;21814;-92
2022/05/27 08:20:32;;;;;;;2.98;1.80;;;;;;;21.55;100.00;100754.62;1759750;78;21142;-91
2022/05/27 08:23:00;;;;;;;2.35;2.15;;;;;;;21.66;100.00;100746.77;1791566;80;21033;-92
2022/05/27 08:25:30;;;;;;;3.92;2.05;;;;;;;21.67;100.00;100747.05;1761502;78;21013;-91
2022/05/27 08:27:57;;;;;;;2.35;1.95;;;;;;;21.60;100.00;100752.78;1787772;80;20998;-90
2022/05/27 08:30:29;;;;;;;2.00;1.90;;;;;;;21.58;95.44;100748.19;1787824;80;21044;-91
2022/05/27 08:32:57;;;;;;;3.77;2.10;;;;;;;21.58;95.44;100746.34;1767323;78;21162;-92
2022/05/27 08:38:16;;;;;;;2.10;2.00;;;;;;;21.72;100.00;100756.61;1823966;78;21478;-92
2022/05/27 08:41:25;;;;;;;1.72;1.60;;;;;;;21.75;100.00;100745.63;1816505;78;21120;-93
2022/05/27 08:44:31;;;;;;;2.25;1.80;;;;;;;21.80;100.00;100750.36;1823611;78;21557;-92
2022/05/27 08:47:25;;;;;;;2.85;1.82;;;;;;;21.93;100.00;100744.39;1732810;80;21780;-94
2022/05/27 08:50:14;;;;;;;2.02;1.82;;;;;;;22.06;88.24;100762.27;1757329;80;22270;-92
2022/05/27 08:52:46;;;;;;;2.92;1.82;;;;;;;22.11;89.04;100756.41;1763847;81;21072;-93
2022/05/27 09:01:41;;;;;;;2.52;1.80;;;;;;;22.20;77.82;100757.42;1758922;80;21182;-95
2022/05/27 09:04:42;;;;;;;2.72;1.90;;;;;;;22.28;87.67;100755.16;1738263;80;21139;-95
2022/05/27 09:07:36;;;;;;;2.25;1.60;;;;;;;22.36;85.78;100752.88;1779006;80;21503;-94
2022/05/27 09:10:09;;;;;;;1.87;1.65;;;;;;;22.51;77.89;100744.88;1737490;81;21517;-95
2022/05/27 09:13:01;;;;;;;2.37;1.80;;;;;;;22.57;86.27;100742.78;1780538;79;21014;-96
2022/05/27 09:15:58;;;;;;;2.10;1.70;;;;;;;22.63;97.62;100752.66;1768212;79;21234;-93
2022/05/27 09:18:37;;;;;;;2.08;1.75;;;;;;;22.74;85.50;100748.65;1748182;81;21112;-95
2022/05/27 09:21:22;;;;;;;1.92;1.50;;;;;;;22.79;78.27;100752.86;1762375;80;20995;-94
2022/05/27 09:24:13;;;;;;;1.82;1.72;;;;;;;22.77;79.12;100751.42;1749586;81;21018;-95
2022/05/27 09:26:49;;;;;;;2.65;1.80;;;;;;;22.85;89.41;100745.97;1754560;80;21089;-96
2022/05/27 09:29:54;;;;;;;1.70;1.60;;;;;;;22.91;82.45;100750.50;1770909;80;21364;-94
2022/05/27 09:32:58;;;;;;;4.80;1.75;;;;;;;22.94;74.51;100747.47;1753082;81;21096;-94
2022/05/27 09:35:46;;;;;;;6.15;2.25;;;;;;;22.96;73.21;100745.94;1763067;80;21050;-94
2022/05/27 09:38:26;;;;;;;1.67;1.57;;;;;;;23.04;81.24;100740.96;1765305;80;21020;-95
2022/05/27 09:40:58;;;;;;;1.70;1.60;;;;;;;23.16;83.55;100743.40;1730362;81;21108;-94
2022/05/27 09:43:40;;;;;;;1.65;1.50;;;;;;;23.26;81.75;100735.94;1766872;80;21038;-96
2022/05/27 09:46:14;;;;;;;2.30;1.82;;;;;;;23.30;71.14;100745.14;1756852;79;21500;-95
2022/05/27 09:48:45;;;;;;;3.42;2.05;;;;;;;23.22;69.43;100736.00;1803089;78;21017;-93
2022/05/27 09:51:14;;;;;;;1.55;1.32;;;;;;;23.19;71.04;100738.23;1771873;79;21137;-95
2022/05/27 09:53:48;;;;;;;3.52;1.80;;;;;;;23.22;69.89;100745.30;1728655;79;21551;-94
2022/05/27 09:56:32;;;;;;;2.02;1.50;;;;;;;23.19;67.96;100745.71;1804029;79;21218;-96
2022/05/27 09:59:20;;;;;;;4.75;1.80;;;;;;;23.19;69.28;100749.69;1717986;80;21038;-95
2022/05/27 10:01:48;;;;;;;4.17;1.50;;;;;;;23.29;76.52;100742.16;1744018;80;21051;-94
2022/05/27 10:04:17;;;;;;;2.27;1.72;;;;;;;23.24;63.03;100727.34;1764035;80;20973;-92
2022/05/27 10:06:46;;;;;;;4.42;1.80;;;;;;;23.07;70.98;100735.27;1739514;81;20998;-94
2022/05/27 10:09:33;;;;;;;2.17;1.80;;;;;;;23.02;84.41;100742.49;1668210;84;21152;-94
2022/05/27 10:12:00;;;;;;;2.25;1.80;;;;;;;23.08;71.04;100739.05;1738153;81;21031;-94
2022/05/27 10:14:34;;;;;;;2.90;1.62;;;;;;;23.16;63.96;100734.11;1668148;84;21054;-94
2022/05/27 10:17:15;;;;;;;1.82;1.72;;;;;;;23.15;68.71;100731.94;1738805;81;21172;-95
2022/05/27 10:19:46;;;;;;;3.33;1.80;;;;;;;23.07;65.90;100730.80;1767997;79;21044;-96
2022/05/27 10:22:28;;;;;;;2.42;1.57;;;;;;;22.82;70.65;100736.56;1807262;78;21752;-95
2022/05/27 10:25:11;;;;;;;1.95;1.75;;;;;;;22.80;71.78;100732.44;1804322;78;21026;-95
2022/05/27 10:27:44;;;;;;;1.75;1.65;;;;;;;23.01;73.70;100739.52;1804203;78;21036;-94
2022/05/27 10:30:32;;;;;;;3.10;2.00;;;;;;;23.23;65.03;100716.39;1775870;79;20987;-94
2022/05/27 10:33:22;;;;;;;3.17;1.72;;;;;;;23.41;64.28;100717.70;1804175;79;20974;-93
2022/05/27 10:35:52;;;;;;;2.00;1.80;;;;;;;23.51;60.06;100718.16;1802287;79;21073;-95
2022/05/27 10:39:01;;;;;;;2.90;1.67;;;;;;;23.36;60.52;100719.63;1801221;79;21077;-96
2022/05/27 10:41:50;;;;;;;2.58;1.50;;;;;;;23.25;64.38;100705.56;1804298;79;21058;-95
2022/05/27 10:44:31;;;;;;;3.42;1.70;;;;;;;23.26;62.32;100709.38;1804464;79;21050;-95
2022/05/27 10:46:59;;;;;;;1.52;1.40;;;;;;;23.20;62.75;100707.48;1804152;79;20979;-96
2022/05/27 10:50:08;;;;;;;3.33;1.85;;;;;;;23.18;63.47;100711.36;1804347;79;21132;-94
2022/05/27 10:52:46;;;;;;;2.05;1.70;;;;;;;23.16;65.04;100701.72;1722940;80;21064;-96
2022/05/27 10:55:31;;;;;;;1.98;1.70;;;;;;;23.06;64.89;100700.44;1779216;78;20980;-96
2022/05/27 11:02:04;;;;;;;3.02;1.72;;;;;;;23.39;65.78;100690.02;1778153;78;20995;-94
2022/05/27 11:04:53;;;;;;;1.70;1.60;;;;;;;23.73;65.84;100679.48;1771085;79;21172;-93
2022/05/27 11:07:38;;;;;;;2.17;1.60;;;;;;;24.04;64.49;100675.47;1770783;80;21014;-94
2022/05/27 11:10:39;;;;;;;1.92;1.82;;;;;;;24.31;59.69;100672.83;1724440;82;21109;-93
2022/05/27 11:17:02;;;;;;;1.75;1.65;;;;;;;24.40;56.57;100672.90;1772399;81;21144;-93
2022/05/27 11:19:34;;;;;;;2.72;1.70;;;;;;;24.43;57.45;100673.83;1734509;82;21323;-94
2022/05/27 11:22:26;;;;;;;2.45;1.80;;;;;;;24.41;54.63;100671.88;1687225;82;21019;-94
2022/05/27 11:25:30;;;;;;;2.30;1.82;;;;;;;24.44;57.66;100674.14;1737578;82;21078;-95
2022/05/27 11:28:32;;;;;;;1.80;1.70;;;;;;;24.52;56.02;100667.28;1734810;82;21603;-92
2022/05/27 11:31:25;;;;;;;;;;;;;;;24.73;57.90;100668.08;1739562;82;21106;-94
2022/05/27 11:34:17;;;;;;;1.90;1.47;;;;;;;24.75;59.52;100667.89;1703386;82;21219;-91
2022/05/27 11:37:17;;;;;;;3.00;1.72;;;;;;;24.70;57.72;100668.52;1751452;80;21000;-93
2022/05/27 11:40:08;;;;;;;1.72;1.62;;;;;;;24.63;53.27;100665.83;1747371;81;21062;-93
2022/05/27 11:43:15;;;;;;;2.15;1.70;;;;;;;24.52;53.17;100664.61;1741952;81;21050;-92
2022/05/27 11:46:14;;;;;;;1.52;1.40;;;;;;;24.59;62.16;100669.94;1768086;81;21066;-93
2022/05/27 11:48:52;;;;;;;3.20;1.82;;;;;;;24.81;53.14;100659.88;1729419;81;21196;-92
2022/05/27 11:51:51;;;;;;;1.80;1.70;;;;;;;24.79;51.38;100671.27;1764070;80;21041;-92
2022/05/27 11:54:39;;;;;;;4.20;1.87;;;;;;;24.68;50.41;100665.23;1762012;80;21073;-93
2022/05/27 11:57:53;;;;;;;3.10;1.35;;;;;;;24.39;49.97;100661.45;1767740;79;21058;-92
2022/05/27 12:00:27;;;;;;;2.00;1.50;;;;;;;24.44;56.51;100662.17;1764923;80;21007;-92
2022/05/27 12:03:37;;;;;;;1.90;1.60;;;;;;;24.56;53.42;100663.16;1760888;80;21125;-92
2022/05/27 12:06:26;;;;;;;2.17;1.95;;;;;;;24.61;51.61;100661.73;1736781;80;21054;-91
2022/05/27 12:09:09;;;;;;;1.57;1.42;;;;;;;24.69;52.30;100660.22;1759661;80;21061;-92
2022/05/27 12:11:54;;;;;;;1.82;1.57;;;;;;;24.87;49.19;100651.07;1731913;81;21015;-90
2022/05/27 12:14:46;;;;;;;3.02;1.40;;;;;;;25.04;51.00;100650.58;1741753;81;21054;-90
2022/05/27 12:17:20;;;;;;;2.30;1.80;;;;;;;24.95;48.58;100649.20;1767881;80;21859;-90
2022/05/27 12:20:00;;;;;;;4.87;1.57;;;;;;;24.83;48.70;100653.83;1740412;81;20972;-92
2022/05/27 12:22:33;;;;;;;1.50;1.40;;;;;;;24.57;50.19;100645.36;1744609;81;21036;-93
2022/05/27 12:25:22;;;;;;;1.87;1.47;;;;;;;24.20;52.17;100651.13;1738202;81;21026;-92